TDPD

Melville Hall Airport

Marigot, Dominica
METAR TDPD 201600Z 11010KT 9999 FEW019 31/24 Q1016
Observed Flight Rules
Sep-20 @ 16:00 UTC (an hour ago) Visual Flight Rules
Wind Visibility Clouds
110° at 10 knots 10,000+ meters
  • Few at 1,900' AGL
Temperatures Readings
Current 31°C / 88°F
Dewpoint 24°C / 75°F
Humidity 66%
Altimeter 30" Hg
Pressure 1016 hPa
Elevation 14
METAR TDPD 201600Z 11010KT 9999 FEW019 31/24 Q1016
Observed Flight Rules
Sep-20 @ 16:00 UTC
(an hour ago)
VFR
Wind Visibility
110° at 10 knots 10,000+ meters
Clouds
  • Few at 1,900' AGL
Temperature Dewpoint
31°C / 88°F 24°C / 75°F
Humidity Altimeter Pressure
66% 30" Hg 1016 hPa